createdAt,value
2023-03-17T00:01:33.403Z,9.51
2023-03-17T00:05:39.139Z,9.65
2023-03-17T00:09:40.720Z,9.06
2023-03-17T00:13:43.489Z,9.71
2023-03-17T00:17:45.800Z,9.57
2023-03-17T00:21:47.888Z,9.70
2023-03-17T00:25:49.849Z,9.76
2023-03-17T00:29:51.683Z,9.39
2023-03-17T00:33:55.308Z,9.64
2023-03-17T00:37:57.860Z,9.42
2023-03-17T00:41:59.649Z,9.26
2023-03-17T00:46:01.385Z,9.30
2023-03-17T00:50:02.936Z,9.44
2023-03-17T00:54:04.533Z,9.79
2023-03-17T00:58:13.823Z,9.56
2023-03-17T01:02:15.317Z,9.30
2023-03-17T01:06:17.576Z,9.16
2023-03-17T01:10:25.684Z,9.49
2023-03-17T01:14:27.849Z,9.20
2023-03-17T01:18:29.325Z,9.62
2023-03-17T01:22:30.982Z,9.00
2023-03-17T01:26:32.595Z,9.57
2023-03-17T01:30:39.956Z,9.01
2023-03-17T01:34:41.393Z,9.14
2023-03-17T01:38:42.833Z,9.20
2023-03-17T01:42:49.234Z,9.25
2023-03-17T01:46:50.711Z,9.28
2023-03-17T01:50:53.769Z,9.11
2023-03-17T01:55:02.359Z,8.75
2023-03-17T01:59:08.287Z,9.12
2023-03-17T02:03:10.424Z,9.30
2023-03-17T02:07:12.926Z,9.03
2023-03-17T02:11:16.959Z,8.89
2023-03-17T02:15:19.079Z,8.94
2023-03-17T02:19:20.943Z,8.80
2023-03-17T02:23:24.668Z,8.92
2023-03-17T02:27:33.781Z,8.62
2023-03-17T02:31:35.600Z,8.59
2023-03-17T02:35:37.450Z,9.12
2023-03-17T02:39:38.973Z,9.37
2023-03-17T02:43:41.393Z,9.40
2023-03-17T02:47:42.950Z,8.95
2023-03-17T02:51:45.244Z,8.68
2023-03-17T02:55:46.708Z,8.80
2023-03-17T02:59:48.268Z,8.71
2023-03-17T03:03:49.700Z,8.47
2023-03-17T03:07:52.214Z,9.14
2023-03-17T03:11:53.705Z,8.69
2023-03-17T03:15:55.172Z,8.91
2023-03-17T03:19:56.761Z,8.71
2023-03-17T03:23:58.284Z,8.88
2023-03-17T03:27:59.697Z,8.35
2023-03-17T03:32:01.555Z,8.72
2023-03-17T03:36:03.121Z,8.94
2023-03-17T03:40:07.365Z,8.48
2023-03-17T03:44:08.805Z,8.71
2023-03-17T03:48:11.202Z,8.67
2023-03-17T03:52:12.665Z,8.33
2023-03-17T03:56:14.597Z,8.64
2023-03-17T04:00:17.624Z,8.43
2023-03-17T04:04:19.055Z,8.99
2023-03-17T04:08:20.882Z,8.91
2023-03-17T04:12:22.415Z,8.52
2023-03-17T04:16:23.959Z,8.66
2023-03-17T04:20:25.511Z,8.55
2023-03-17T04:24:27.698Z,7.88
2023-03-17T04:28:29.150Z,8.74
2023-03-17T04:32:30.721Z,8.47
2023-03-17T04:36:32.755Z,8.39
2023-03-17T04:40:34.305Z,7.96
2023-03-17T04:44:36.473Z,8.32
2023-03-17T04:48:37.987Z,7.95
2023-03-17T04:52:39.811Z,8.24
2023-03-17T04:56:41.290Z,8.51
2023-03-17T05:00:42.766Z,7.93
2023-03-17T05:04:45.519Z,8.54
2023-03-17T05:08:47.185Z,8.46
2023-03-17T05:12:48.620Z,8.17
2023-03-17T05:16:50.867Z,8.62
2023-03-17T05:20:52.461Z,8.93
2023-03-17T05:24:53.977Z,8.60
2023-03-17T05:28:55.469Z,8.16
2023-03-17T05:32:57.266Z,8.09
2023-03-17T05:36:58.743Z,7.83
2023-03-17T05:41:00.192Z,8.34
2023-03-17T05:45:01.686Z,8.55
2023-03-17T05:49:03.744Z,7.87
2023-03-17T05:53:06.290Z,8.07
2023-03-17T05:57:08.094Z,8.17
2023-03-17T06:01:09.574Z,8.50
2023-03-17T06:05:11.491Z,8.33
2023-03-17T06:09:12.931Z,8.26
2023-03-17T06:13:15.370Z,8.05
2023-03-17T06:17:17.019Z,8.10
2023-03-17T06:21:18.440Z,8.46
2023-03-17T06:25:19.847Z,8.41
2023-03-17T06:29:21.582Z,8.40
2023-03-17T06:33:23.302Z,8.68
2023-03-17T06:37:25.099Z,8.78
2023-03-17T06:41:27.238Z,8.74
2023-03-17T06:45:29.317Z,8.90
2023-03-17T06:49:31.187Z,9.13
2023-03-17T06:53:32.648Z,9.03
2023-03-17T06:57:34.779Z,9.16
2023-03-17T07:01:37.692Z,9.08
2023-03-17T07:05:39.338Z,8.94
2023-03-17T07:09:40.777Z,8.78
2023-03-17T07:13:42.215Z,9.20
2023-03-17T07:17:43.624Z,9.37
2023-03-17T07:21:46.950Z,9.02
2023-03-17T07:25:49.343Z,8.65
2023-03-17T07:29:51.736Z,8.60
2023-03-17T07:33:54.837Z,9.32
2023-03-17T07:37:57.374Z,9.31
2023-03-17T07:41:58.812Z,9.01
2023-03-17T07:46:00.292Z,9.07
2023-03-17T07:50:01.842Z,9.26
2023-03-17T07:54:04.091Z,9.48
2023-03-17T07:58:06.633Z,9.63
2023-03-17T08:02:14.112Z,9.37
2023-03-17T08:06:15.617Z,9.77
2023-03-17T08:10:18.144Z,10.19
2023-03-17T08:14:19.636Z,10.27
2023-03-17T08:18:21.229Z,10.98
2023-03-17T08:22:23.772Z,10.88
2023-03-17T08:26:25.466Z,10.87
2023-03-17T08:30:27.400Z,10.99
2023-03-17T08:34:29.173Z,11.02
2023-03-17T08:38:31.598Z,10.91
2023-03-17T08:42:32.994Z,10.67
2023-03-17T08:46:35.106Z,10.45
2023-03-17T08:50:37.276Z,11.39
2023-03-17T08:54:39.013Z,11.16
2023-03-17T08:58:40.757Z,11.05
2023-03-17T09:02:43.555Z,11.13
2023-03-17T09:07:01.719Z,12.01
2023-03-17T09:11:05.399Z,11.43
2023-03-17T09:15:07.679Z,11.47
2023-03-17T09:19:09.219Z,11.85
2023-03-17T09:23:11.658Z,11.61
2023-03-17T09:27:13.513Z,12.51
2023-03-17T09:31:15.610Z,12.54
2023-03-17T09:35:17.170Z,12.43
2023-03-17T09:39:18.887Z,12.49
2023-03-17T09:43:41.433Z,12.97
2023-03-17T09:47:58.212Z,13.34
2023-03-17T09:51:59.778Z,13.10
2023-03-17T09:56:12.276Z,13.10
2023-03-17T10:00:18.370Z,13.30
2023-03-17T10:04:20.172Z,13.39
2023-03-17T10:08:35.653Z,12.95
2023-03-17T10:12:39.719Z,12.25
2023-03-17T10:16:58.066Z,12.39
2023-03-17T10:21:07.072Z,12.72
2023-03-17T10:25:16.661Z,12.35
2023-03-17T10:29:23.744Z,13.10
2023-03-17T10:33:26.494Z,12.75
2023-03-17T10:37:29.677Z,13.39
2023-03-17T10:41:53.389Z,13.22
2023-03-17T10:46:03.517Z,13.49
2023-03-17T10:50:28.863Z,14.01
2023-03-17T10:54:35.644Z,13.87
2023-03-17T10:58:45.278Z,13.43
2023-03-17T11:02:57.928Z,13.74
2023-03-17T11:07:06.694Z,13.48
2023-03-17T11:11:22.481Z,13.55
2023-03-17T11:15:31.645Z,14.39
2023-03-17T11:20:02.475Z,14.71
2023-03-17T11:24:10.394Z,14.44
2023-03-17T11:28:33.475Z,14.47
2023-03-17T11:32:56.402Z,14.77
2023-03-17T11:37:13.171Z,14.68
2023-03-17T11:41:20.572Z,14.62
2023-03-17T11:45:42.256Z,15.40
2023-03-17T11:49:53.892Z,15.44
2023-03-17T11:54:06.709Z,15.80
2023-03-17T11:58:16.297Z,14.87
2023-03-17T12:02:31.045Z,15.00
2023-03-17T12:06:35.642Z,15.63
2023-03-17T12:10:47.453Z,15.83
2023-03-17T12:14:53.263Z,15.74
2023-03-17T12:19:10.104Z,16.34
2023-03-17T12:23:29.902Z,15.72
2023-03-17T12:27:42.657Z,16.34
2023-03-17T12:31:52.368Z,15.88
2023-03-17T12:35:54.045Z,16.57
2023-03-17T12:40:14.944Z,15.95
2023-03-17T12:44:54.284Z,16.32
2023-03-17T12:49:27.054Z,16.38
2023-03-17T12:53:31.352Z,16.75
2023-03-17T12:57:46.235Z,16.60
2023-03-17T13:02:16.116Z,17.18
2023-03-17T13:06:21.273Z,16.91
2023-03-17T13:10:42.616Z,16.55
2023-03-17T13:14:47.252Z,16.61
2023-03-17T13:18:49.887Z,16.81
2023-03-17T13:23:00.374Z,16.76
2023-03-17T13:27:04.502Z,16.64
2023-03-17T13:31:31.392Z,16.70
2023-03-17T13:35:41.724Z,16.44
2023-03-17T13:39:51.990Z,16.56
2023-03-17T13:44:09.944Z,16.02
2023-03-17T13:48:30.826Z,16.46
2023-03-17T13:52:39.024Z,16.39
2023-03-17T13:56:40.417Z,16.85
2023-03-17T14:00:48.883Z,17.08
2023-03-17T14:04:58.796Z,16.28
2023-03-17T14:09:09.252Z,16.00
2023-03-17T14:13:27.792Z,15.91
2023-03-17T14:17:34.034Z,16.15
2023-03-17T14:21:36.456Z,16.13
2023-03-17T14:25:39.852Z,17.02
2023-03-17T14:29:41.326Z,16.83
2023-03-17T14:33:42.993Z,17.19
2023-03-17T14:37:45.389Z,16.53
2023-03-17T14:41:57.232Z,16.60
2023-03-17T14:46:07.531Z,16.35
2023-03-17T14:50:24.756Z,16.30
2023-03-17T14:54:31.174Z,16.63
2023-03-17T14:58:44.370Z,16.76
2023-03-17T15:02:56.185Z,16.32
2023-03-17T15:07:03.618Z,16.50
2023-03-17T15:11:06.486Z,16.30
2023-03-17T15:15:25.748Z,16.67
2023-03-17T15:19:44.165Z,16.52
2023-03-17T15:23:47.766Z,16.39
2023-03-17T15:27:49.379Z,16.86
2023-03-17T15:31:51.064Z,15.94
2023-03-17T15:35:52.622Z,15.65
2023-03-17T15:39:55.764Z,15.74
2023-03-17T15:43:57.201Z,15.62
2023-03-17T15:47:58.720Z,15.64
2023-03-17T15:52:00.436Z,15.63
2023-03-17T15:56:01.840Z,16.12
2023-03-17T16:00:04.059Z,16.02
2023-03-17T16:04:14.330Z,16.69
2023-03-17T16:08:17.770Z,15.93
2023-03-17T16:12:19.285Z,15.88
2023-03-17T16:16:28.720Z,15.44
2023-03-17T16:20:42.604Z,15.18
2023-03-17T16:24:44.622Z,15.27
2023-03-17T16:28:47.721Z,15.67
2023-03-17T16:32:49.813Z,15.24
2023-03-17T16:36:51.337Z,15.00
2023-03-17T16:41:00.069Z,15.39
2023-03-17T16:45:01.609Z,15.16
2023-03-17T16:49:04.139Z,14.98
2023-03-17T16:53:05.607Z,14.91
2023-03-17T16:57:11.614Z,15.27
2023-03-17T17:01:20.225Z,15.30
2023-03-17T17:05:24.734Z,15.21
2023-03-17T17:09:26.119Z,15.28
2023-03-17T17:13:27.738Z,14.75
2023-03-17T17:17:29.854Z,15.12
2023-03-17T17:21:32.952Z,14.97
2023-03-17T17:25:34.462Z,15.07
2023-03-17T17:29:36.199Z,15.10
2023-03-17T17:33:38.478Z,15.01
2023-03-17T17:37:40.111Z,15.08
2023-03-17T17:41:41.540Z,14.97
2023-03-17T17:45:43.044Z,14.63
2023-03-17T17:49:44.611Z,15.04
2023-03-17T17:53:46.034Z,14.75
2023-03-17T17:57:47.501Z,15.17
2023-03-17T18:01:49.322Z,15.16
2023-03-17T18:05:55.180Z,14.81
2023-03-17T18:09:56.706Z,15.14
2023-03-17T18:13:58.157Z,14.59
2023-03-17T18:17:59.645Z,15.13
2023-03-17T18:22:01.094Z,15.33
2023-03-17T18:26:03.669Z,15.02
2023-03-17T18:30:07.576Z,15.00
2023-03-17T18:34:21.741Z,14.93
2023-03-17T18:38:23.230Z,14.57
2023-03-17T18:42:24.736Z,14.46
2023-03-17T18:46:26.240Z,14.60
2023-03-17T18:50:27.705Z,14.70
2023-03-17T18:54:29.204Z,14.41
2023-03-17T18:58:30.761Z,14.96
2023-03-17T19:02:32.196Z,14.44
2023-03-17T19:06:35.285Z,14.67
2023-03-17T19:10:36.979Z,14.56
2023-03-17T19:14:41.405Z,14.87
2023-03-17T19:18:42.943Z,14.68
2023-03-17T19:22:44.531Z,14.53
2023-03-17T19:26:46.063Z,14.34
2023-03-17T19:30:47.839Z,14.04
2023-03-17T19:34:49.266Z,14.02
2023-03-17T19:38:51.088Z,14.33
2023-03-17T19:42:52.526Z,14.39
2023-03-17T19:46:54.150Z,13.96
2023-03-17T19:50:55.596Z,14.00
2023-03-17T19:54:57.775Z,14.53
2023-03-17T19:58:59.781Z,14.49
2023-03-17T20:03:01.219Z,14.49
2023-03-17T20:07:02.760Z,14.51
2023-03-17T20:11:05.893Z,14.34
2023-03-17T20:15:08.660Z,14.23
2023-03-17T20:19:10.084Z,14.48
2023-03-17T20:23:11.531Z,14.17
2023-03-17T20:27:15.227Z,14.09
2023-03-17T20:31:17.893Z,14.26
2023-03-17T20:35:20.831Z,13.69
2023-03-17T20:39:22.266Z,13.76
2023-03-17T20:43:23.771Z,13.71
2023-03-17T20:47:26.543Z,13.40
2023-03-17T20:51:28.048Z,13.60
2023-03-17T20:55:30.747Z,13.71
2023-03-17T20:59:33.539Z,13.80
2023-03-17T21:03:35.074Z,13.21
2023-03-17T21:07:36.572Z,13.52
2023-03-17T21:11:38.065Z,13.69
2023-03-17T21:15:40.045Z,13.41
2023-03-17T21:19:42.106Z,13.64
2023-03-17T21:23:44.313Z,13.33
2023-03-17T21:27:46.007Z,13.45
2023-03-17T21:31:47.580Z,13.46
2023-03-17T21:35:49.381Z,13.40
2023-03-17T21:39:50.825Z,13.26
2023-03-17T21:43:52.251Z,13.33
2023-03-17T21:47:54.205Z,13.61
2023-03-17T21:51:55.649Z,13.72
2023-03-17T21:55:57.817Z,13.65
2023-03-17T21:59:59.314Z,13.60
2023-03-17T22:04:01.169Z,13.99
2023-03-17T22:08:03.167Z,13.90
2023-03-17T22:12:05.292Z,13.37
2023-03-17T22:16:07.663Z,13.74
2023-03-17T22:20:10.545Z,13.54
2023-03-17T22:24:12.642Z,14.06
2023-03-17T22:28:14.309Z,13.64
2023-03-17T22:32:15.938Z,13.69
2023-03-17T22:36:17.837Z,13.12
2023-03-17T22:40:19.378Z,13.97
2023-03-17T22:44:20.916Z,13.52
2023-03-17T22:48:22.369Z,13.43
2023-03-17T22:52:23.899Z,13.51
2023-03-17T22:56:26.446Z,13.51
2023-03-17T23:00:27.858Z,13.67
2023-03-17T23:04:29.307Z,13.59
2023-03-17T23:08:34.969Z,13.52
2023-03-17T23:12:37.914Z,13.91
2023-03-17T23:16:39.401Z,13.47
2023-03-17T23:20:41.799Z,13.56
2023-03-17T23:24:43.547Z,13.25
2023-03-17T23:28:46.234Z,12.86
2023-03-17T23:32:49.109Z,12.98
2023-03-17T23:36:50.571Z,12.67
2023-03-17T23:40:56.773Z,13.02
2023-03-17T23:44:59.204Z,13.22
2023-03-17T23:49:00.722Z,13.61
2023-03-17T23:53:02.553Z,12.93
2023-03-17T23:57:04.151Z,13.19
